createdAt,value
2022-08-26T00:00:53.869Z,95526.97
2022-08-26T00:06:32.806Z,95522.55
2022-08-26T00:12:01.230Z,95512.45
2022-08-26T00:17:36.292Z,95511.64
2022-08-26T00:23:15.469Z,95506.60
2022-08-26T00:26:06.274Z,95513.61
2022-08-26T00:31:45.297Z,95507.96
2022-08-26T00:34:35.250Z,95507.30
2022-08-26T00:37:23.725Z,95511.13
2022-08-26T00:43:07.006Z,95512.84
2022-08-26T00:48:46.589Z,95507.56
2022-08-26T00:54:30.942Z,95508.89
2022-08-26T01:00:06.986Z,95513.84
2022-08-26T01:02:56.628Z,95514.47
2022-08-26T01:05:46.936Z,95513.51
2022-08-26T01:11:21.463Z,95522.31
2022-08-26T01:16:50.025Z,95518.50
2022-08-26T01:22:32.596Z,95509.12
2022-08-26T01:25:21.671Z,95511.90
2022-08-26T01:28:16.242Z,95515.84
2022-08-26T01:31:09.691Z,95519.87
2022-08-26T01:36:58.614Z,95518.87
2022-08-26T01:42:36.806Z,95515.81
2022-08-26T01:48:16.987Z,95522.21
2022-08-26T01:51:07.247Z,95520.63
2022-08-26T01:56:45.803Z,95524.02
2022-08-26T02:02:24.546Z,95529.19
2022-08-26T02:07:58.223Z,95527.64
2022-08-26T02:10:49.727Z,95533.03
2022-08-26T02:16:32.689Z,95528.95
2022-08-26T02:25:02.436Z,95532.08
2022-08-26T02:27:51.807Z,95533.52
2022-08-26T02:33:28.876Z,95530.15
2022-08-26T02:39:06.155Z,95521.69
2022-08-26T02:44:40.339Z,95520.34
2022-08-26T02:47:28.907Z,95525.73
2022-08-26T02:53:06.757Z,95520.60
2022-08-26T02:55:56.157Z,95530.85
2022-08-26T02:58:44.784Z,95530.08
2022-08-26T03:04:19.651Z,95531.25
2022-08-26T03:07:08.617Z,95532.28
2022-08-26T03:09:57.869Z,95529.52
2022-08-26T03:15:41.367Z,95525.94
2022-08-26T03:21:19.602Z,95519.25
2022-08-26T03:26:57.574Z,95511.92
2022-08-26T03:32:28.624Z,95516.84
2022-08-26T03:35:17.013Z,95513.70
2022-08-26T03:38:08.060Z,95522.33
2022-08-26T03:40:57.193Z,95519.02
2022-08-26T03:46:26.757Z,95517.82
2022-08-26T03:52:02.978Z,95516.84
2022-08-26T03:57:41.673Z,95516.69
2022-08-26T04:03:22.837Z,95518.05
2022-08-26T04:06:13.795Z,95522.19
2022-08-26T04:11:51.127Z,95526.71
2022-08-26T04:17:17.527Z,95516.33
2022-08-26T04:20:07.792Z,95524.95
2022-08-26T04:22:58.346Z,95519.08
2022-08-26T04:28:34.405Z,95523.00
2022-08-26T04:34:10.940Z,95518.88
2022-08-26T04:36:59.543Z,95527.92
2022-08-26T04:42:36.624Z,95523.99
2022-08-26T04:45:25.480Z,95523.81
2022-08-26T04:51:01.973Z,95526.34
2022-08-26T04:56:32.540Z,95526.94
2022-08-26T04:59:21.956Z,95530.87
2022-08-26T05:02:14.176Z,95527.92
2022-08-26T05:07:48.626Z,95526.32
2022-08-26T05:10:46.886Z,95533.02
2022-08-26T05:16:17.571Z,95539.84
2022-08-26T05:19:06.986Z,95538.11
2022-08-26T05:24:48.827Z,95543.42
2022-08-26T05:27:37.601Z,95546.34
2022-08-26T05:30:27.569Z,95545.47
2022-08-26T05:33:17.277Z,95532.92
2022-08-26T05:36:10.398Z,95538.91
2022-08-26T05:39:01.237Z,95535.57
2022-08-26T05:44:53.695Z,95541.80
2022-08-26T05:53:04.117Z,95540.18
2022-08-26T05:58:43.805Z,95545.66
2022-08-26T06:01:35.750Z,95551.14
2022-08-26T06:06:55.390Z,95555.11
2022-08-26T06:12:29.374Z,95564.49
2022-08-26T06:18:00.177Z,95564.58
2022-08-26T06:24:00.043Z,95562.20
2022-08-26T06:26:51.531Z,95568.48
2022-08-26T06:29:40.013Z,95569.30
2022-08-26T06:32:29.066Z,95570.45
2022-08-26T06:35:18.216Z,95573.28
2022-08-26T06:40:54.844Z,95576.12
2022-08-26T06:46:24.644Z,95577.47
2022-08-26T06:52:00.775Z,95582.45
2022-08-26T06:57:39.751Z,95582.63
2022-08-26T07:00:31.309Z,95589.99
2022-08-26T07:06:09.976Z,95581.91
2022-08-26T07:09:04.960Z,95584.24
2022-08-26T07:14:36.927Z,95587.82
2022-08-26T07:17:25.328Z,95595.41
2022-08-26T07:23:00.513Z,95598.55
2022-08-26T07:28:34.364Z,95583.25
2022-08-26T07:34:10.665Z,95585.91
2022-08-26T07:39:48.333Z,95591.23
2022-08-26T07:42:37.539Z,95591.38
2022-08-26T07:48:13.636Z,95580.23
2022-08-26T07:53:52.395Z,95593.66
2022-08-26T07:59:24.248Z,95595.32
2022-08-26T08:05:01.004Z,95596.09
2022-08-26T08:07:49.460Z,95594.91
2022-08-26T08:13:21.199Z,95591.64
2022-08-26T08:18:59.237Z,95586.95
2022-08-26T08:24:34.343Z,95591.08
2022-08-26T08:27:36.885Z,95588.37
2022-08-26T08:33:12.846Z,95583.13
2022-08-26T08:41:49.817Z,95578.83
2022-08-26T08:47:31.329Z,95579.66
2022-08-26T08:53:16.451Z,95578.78
2022-08-26T09:02:08.352Z,95573.71
2022-08-26T09:08:08.357Z,95579.24
2022-08-26T09:16:38.729Z,95579.62
2022-08-26T09:22:13.188Z,95571.71
2022-08-26T09:25:02.028Z,95572.98
2022-08-26T09:30:41.032Z,95569.25
2022-08-26T09:36:24.892Z,95569.16
2022-08-26T09:42:22.943Z,95566.56
2022-08-26T09:45:13.037Z,95566.83
2022-08-26T09:50:53.209Z,95563.66
2022-08-26T09:56:42.635Z,95558.95
2022-08-26T10:02:27.566Z,95551.16
2022-08-26T10:05:20.089Z,95547.69
2022-08-26T10:11:05.255Z,95544.36
2022-08-26T10:16:46.852Z,95538.03
2022-08-26T10:22:28.604Z,95535.72
2022-08-26T10:28:20.756Z,95529.02
2022-08-26T10:31:14.776Z,95525.77
2022-08-26T10:37:13.857Z,95511.91
2022-08-26T10:39:57.264Z,95516.17
2022-08-26T10:45:32.958Z,95512.59
2022-08-26T10:51:11.349Z,95507.67
2022-08-26T10:54:02.378Z,95506.28
2022-08-26T10:59:44.261Z,95498.98
2022-08-26T11:05:24.603Z,95500.09
2022-08-26T11:11:38.264Z,95490.59
2022-08-26T11:17:21.716Z,95485.95
2022-08-26T11:23:10.277Z,95474.09
2022-08-26T11:29:13.156Z,95471.88
2022-08-26T11:34:59.148Z,95477.09
2022-08-26T11:37:56.138Z,95472.39
2022-08-26T11:43:34.385Z,95472.13
2022-08-26T11:49:09.856Z,95470.09
2022-08-26T11:55:05.180Z,95455.12
2022-08-26T12:00:37.526Z,95438.62
2022-08-26T12:09:30.647Z,95431.92
2022-08-26T12:15:30.952Z,95434.06
2022-08-26T12:21:14.094Z,95430.07
2022-08-26T12:27:24.345Z,95435.14
2022-08-26T12:30:19.317Z,95431.71
2022-08-26T12:33:22.761Z,95423.06
2022-08-26T12:36:02.172Z,95423.48
2022-08-26T12:41:48.152Z,95415.52
2022-08-26T12:47:39.022Z,95415.69
2022-08-26T12:50:22.298Z,95415.03
2022-08-26T12:56:03.447Z,95402.20
2022-08-26T13:04:40.854Z,95401.53
2022-08-26T13:10:34.906Z,95396.27
2022-08-26T13:16:08.043Z,95399.91
2022-08-26T13:21:47.700Z,95393.78
2022-08-26T13:27:25.921Z,95392.84
2022-08-26T13:33:02.157Z,95388.89
2022-08-26T13:35:50.479Z,95395.42
2022-08-26T13:44:02.705Z,95382.39
2022-08-26T13:46:51.192Z,95382.19
2022-08-26T13:52:30.081Z,95377.02
2022-08-26T13:57:58.274Z,95367.34
2022-08-26T14:00:47.139Z,95368.67
2022-08-26T14:06:24.993Z,95357.10
2022-08-26T14:12:03.227Z,95353.45
2022-08-26T14:14:55.708Z,95350.70
2022-08-26T14:17:44.429Z,95345.44
2022-08-26T14:23:15.235Z,95350.03
2022-08-26T14:31:29.196Z,95344.75
2022-08-26T14:37:13.525Z,95338.88
2022-08-26T14:40:00.729Z,95328.63
2022-08-26T14:42:53.806Z,95337.50
2022-08-26T14:45:45.434Z,95326.61
2022-08-26T14:48:33.740Z,95318.77
2022-08-26T14:54:12.457Z,95317.50
2022-08-26T14:57:04.665Z,95320.69
2022-08-26T15:02:37.172Z,95321.34
2022-08-26T15:05:25.982Z,95330.06
2022-08-26T15:08:15.823Z,95337.10
2022-08-26T15:13:49.544Z,95339.70
2022-08-26T15:19:25.173Z,95343.83
2022-08-26T15:22:13.725Z,95349.59
2022-08-26T15:25:01.960Z,95344.70
2022-08-26T15:27:50.229Z,95340.17
2022-08-26T15:30:39.419Z,95351.59
2022-08-26T15:36:10.791Z,95338.81
2022-08-26T15:41:49.616Z,95343.34
2022-08-26T15:47:25.054Z,95364.09
2022-08-26T15:53:07.525Z,95392.94
2022-08-26T15:58:45.221Z,95399.27
2022-08-26T16:01:34.173Z,95404.09
2022-08-26T16:07:23.766Z,95405.99
2022-08-26T16:13:01.275Z,95419.67
2022-08-26T16:21:19.330Z,95410.13
2022-08-26T16:24:08.921Z,95431.64
2022-08-26T16:26:57.343Z,95427.09
2022-08-26T16:29:45.710Z,95427.09
2022-08-26T16:35:15.273Z,95438.14
2022-08-26T16:40:54.196Z,95441.92
2022-08-26T16:43:43.638Z,95437.26
2022-08-26T16:49:17.521Z,95443.25
2022-08-26T16:54:46.432Z,95459.75
2022-08-26T16:57:38.203Z,95457.36
2022-08-26T17:03:16.885Z,95465.77
2022-08-26T17:08:55.285Z,95465.45
2022-08-26T17:14:33.419Z,95467.20
2022-08-26T17:20:14.287Z,95466.68
2022-08-26T17:28:41.241Z,95493.86
2022-08-26T17:31:35.825Z,95497.81
2022-08-26T17:37:10.691Z,95504.75
2022-08-26T17:39:59.311Z,95511.13
2022-08-26T17:45:41.116Z,95527.56
2022-08-26T17:48:29.792Z,95526.78
2022-08-26T17:51:19.865Z,95536.05
2022-08-26T17:56:49.444Z,95540.25
2022-08-26T18:02:23.836Z,95551.82
2022-08-26T18:05:13.380Z,95554.50
2022-08-26T18:11:01.333Z,95556.59
2022-08-26T18:13:49.830Z,95555.06
2022-08-26T18:19:29.569Z,95560.22
2022-08-26T18:25:07.454Z,95558.76
2022-08-26T18:27:55.634Z,95558.81
2022-08-26T18:33:31.511Z,95562.95
2022-08-26T18:39:10.446Z,95565.53
2022-08-26T18:44:47.620Z,95569.39
2022-08-26T18:47:37.714Z,95583.58
2022-08-26T18:53:14.715Z,95583.58
2022-08-26T18:58:51.292Z,95595.83
2022-08-26T19:04:37.228Z,95602.63
2022-08-26T19:10:13.855Z,95618.61
2022-08-26T19:13:06.734Z,95614.21
2022-08-26T19:15:57.723Z,95619.23
2022-08-26T19:21:38.054Z,95625.16
2022-08-26T19:30:02.211Z,95631.70
2022-08-26T19:32:51.172Z,95631.78
2022-08-26T19:41:14.015Z,95630.16
2022-08-26T19:44:02.769Z,95641.93
2022-08-26T19:46:54.708Z,95632.31
2022-08-26T19:52:32.473Z,95627.25
2022-08-26T19:55:22.527Z,95627.47
2022-08-26T20:01:10.076Z,95621.76
2022-08-26T20:06:46.880Z,95612.98
2022-08-26T20:12:23.128Z,95617.52
2022-08-26T20:15:14.095Z,95608.88
2022-08-26T20:21:03.474Z,95611.99
2022-08-26T20:26:36.292Z,95609.05
2022-08-26T20:32:36.318Z,95609.67
2022-08-26T20:41:23.595Z,95603.37
2022-08-26T20:44:24.311Z,95608.48
2022-08-26T20:50:11.662Z,95610.06
2022-08-26T20:53:00.935Z,95610.05
2022-08-26T20:55:55.277Z,95613.61
2022-08-26T20:58:49.624Z,95620.69
2022-08-26T21:01:43.907Z,95624.00
2022-08-26T21:10:22.738Z,95631.88
2022-08-26T21:15:59.481Z,95629.51
2022-08-26T21:24:23.723Z,95642.70
2022-08-26T21:30:02.266Z,95658.59
2022-08-26T21:38:29.149Z,95667.85
2022-08-26T21:44:16.118Z,95670.61
2022-08-26T21:47:09.696Z,95672.36
2022-08-26T21:52:39.210Z,95686.92
2022-08-26T22:00:54.621Z,95678.83
2022-08-26T22:06:43.729Z,95673.14
2022-08-26T22:12:23.613Z,95657.79
2022-08-26T22:18:23.268Z,95656.41
2022-08-26T22:21:16.819Z,95655.23
2022-08-26T22:24:11.071Z,95657.61
2022-08-26T22:29:47.854Z,95659.36
2022-08-26T22:32:38.965Z,95653.12
2022-08-26T22:41:09.767Z,95665.67
2022-08-26T22:43:59.156Z,95663.91
2022-08-26T22:46:48.305Z,95673.34
2022-08-26T22:49:36.662Z,95669.81
2022-08-26T22:52:26.287Z,95668.44
2022-08-26T22:58:05.446Z,95664.09
2022-08-26T23:03:41.230Z,95668.62
2022-08-26T23:06:30.102Z,95670.77
2022-08-26T23:09:19.398Z,95672.54
2022-08-26T23:12:08.579Z,95669.02
2022-08-26T23:17:42.496Z,95670.98
2022-08-26T23:23:40.461Z,95674.51
2022-08-26T23:26:29.011Z,95675.31
2022-08-26T23:29:17.267Z,95677.27
2022-08-26T23:34:58.597Z,95673.55
2022-08-26T23:40:40.580Z,95669.03
2022-08-26T23:43:29.339Z,95667.84
2022-08-26T23:49:07.908Z,95668.22
2022-08-26T23:54:45.175Z,95658.03
